Latest Weather Observations for Flinders Island Airport

IDT60801

Issued at 5:32 am EDT Friday 24 November 2017 (issued every 30 minutes, with the page automatically refreshed every 10 minutes)

About weather observations | Map of weather stations | Latest weather observations for TAS | Other Formats
Station Details ID: 099005 Name: FLINDERS ISLAND AIRPORT Lat: -40.09 Lon: 148.00 Height: 9.0 m
Data from the previous 72 hours. | See also: Recent months at Flinders Island Airport
Date/Time
EDT
Temp
°C
App
Temp
°C
Dew
Point
°C
Rel
Hum
%
Delta-T
°C
Wind Press
QNH
hPa
Press
MSL
hPa
Rain since
9am
mm
Dir  Spd
km/h
Gust
km/h
Spd
kts
Gust
kts
24/05:30am 9.3 7.1 9.2 99 0.0 ENE 11 15 6 8 1011.3 1011.3 0.0
24/05:29am 9.3 7.1 9.2 99 0.0 ENE 11 15 6 8 1011.3 1011.3 0.0
24/05:06am 9.0 8.4 8.9 99 0.0 NNE 2 7 1 4 1011.1 1011.1 0.0
24/05:00am 8.9 6.9 8.8 99 0.0 NE 9 11 5 6 1011.0 1011.0 0.0
24/04:30am 9.3 7.4 9.2 99 0.0 NE 9 13 5 7 1010.8 1010.8 0.0
24/04:00am 10.7 9.6 10.5 99 0.1 E 7 11 4 6 1010.7 1010.7 0.0
24/03:30am 12.0 10.9 11.8 99 0.1 NE 9 11 5 6 1010.7 1010.7 0.0
24/03:00am 10.3 7.9 10.1 99 0.1 ENE 13 17 7 9 1010.8 1010.8 0.0
24/02:30am 10.9 9.4 10.7 99 0.1 E 9 11 5 6 1010.8 1010.8 0.0
24/02:00am 10.6 8.3 10.3 98 0.2 NE 13 15 7 8 1010.7 1010.7 0.0
24/01:30am 10.8 8.8 10.3 97 0.3 ENE 11 13 6 7 1011.0 1011.0 0.0
24/01:00am 10.8 9.2 10.2 96 0.3 NE 9 13 5 7 1011.1 1011.1 0.0
24/12:30am 12.3 11.1 11.7 96 0.3 NE 9 13 5 7 1011.2 1011.2 0.0
24/12:00am 12.2 10.9 11.4 95 0.4 ENE 9 11 5 6 1011.3 1011.3 0.0
 
Date/Time
EDT
Temp
°C
App
Temp
°C
Dew
Point
°C
Rel
Hum
%
Delta-T
°C
Wind Press
QNH
hPa
Press
MSL
hPa
Rain since
9am
mm
Dir  Spd
km/h
Gust
km/h
Spd
kts
Gust
kts
23/11:30pm 13.6 13.7 12.8 95 0.4 ENE 4 7 2 4 1011.2 1011.2 0.0
23/11:05pm 12.9 11.8 11.8 93 0.6 ENE 9 11 5 6 1011.2 1011.2 0.0
23/11:00pm 12.8 12.0 11.7 93 0.6 E 7 11 4 6 1011.1 1011.1 0.0
23/10:43pm 13.3 12.6 12.0 92 0.7 E 7 9 4 5 1011.3 1011.3 0.0
23/10:30pm 14.8 14.6 13.5 92 0.7 E 7 11 4 6 1011.2 1011.2 0.0
23/10:00pm 14.9 14.5 13.1 89 1.0 ESE 7 9 4 5 1011.2 1011.2 0.0
23/09:30pm 17.0 17.5 15.0 88 1.2 E 6 9 3 5 1011.4 1011.4 0.0
23/09:00pm 18.3 17.9 16.1 87 1.3 E 13 17 7 9 1011.0 1011.0 0.0
23/08:30pm 18.8 18.7 16.0 84 1.7 ESE 11 15 6 8 1010.8 1010.8 0.0
23/08:00pm 19.5 18.3 16.2 81 2.0 E 17 28 9 15 1010.6 1010.6 0.0
23/07:30pm 20.2 18.6 16.4 79 2.3 E 20 28 11 15 1010.3 1010.3 0.0
23/07:00pm 20.9 18.8 16.3 75 2.8 E 22 33 12 18 1010.1 1010.1 0.0
23/06:30pm 21.4 19.5 16.6 74 2.9 E 22 32 12 17 1010.1 1010.1 0.0
23/06:00pm 22.1 20.1 16.4 70 3.5 E 22 37 12 20 1010.0 1010.0 0.0
23/05:30pm 22.6 20.5 16.2 67 3.9 E 22 33 12 18 1010.2 1010.2 0.0
23/05:00pm 22.9 20.4 16.2 66 4.1 E 24 33 13 18 1010.4 1010.4 0.0
23/04:30pm 23.8 21.3 16.1 62 4.7 E 24 32 13 17 1010.4 1010.4 0.0
23/04:00pm 24.5 20.7 16.7 61 4.8 ENE 32 39 17 21 1010.7 1010.7 0.0
23/03:30pm 22.9 19.2 16.0 65 4.2 ENE 30 37 16 20 1011.1 1011.1 0.0
23/03:00pm 22.9 18.8 16.0 65 4.2 ENE 32 44 17 24 1011.2 1011.2 0.0
23/02:31pm 22.6 19.0 16.2 67 3.9 ENE 30 48 16 26 1011.3 1011.3 0.0
23/02:30pm 22.6 19.0 16.2 67 3.9 ENE 30 41 16 22 1011.3 1011.3 0.0
23/02:00pm 24.0 18.9 16.8 64 4.4 ENE 39 50 21 27 1011.7 1011.7 0.0
23/01:30pm 22.8 18.7 16.4 67 3.9 NE 33 39 18 21 1012.3 1012.3 0.0
23/01:00pm 22.0 19.2 16.3 70 3.5 ENE 26 39 14 21 1012.5 1012.5 0.0
23/12:30pm 21.3 17.9 15.8 71 3.3 ENE 28 33 15 18 1013.0 1013.0 0.0
23/12:00pm 21.0 17.2 15.8 72 3.1 E 30 41 16 22 1013.4 1013.4 0.0
23/11:37am 21.0 17.5 15.5 71 3.3 ENE 28 48 15 26 1013.5 1013.5 0.0
23/11:30am 21.3 17.8 15.6 70 3.4 ENE 28 37 15 20 1013.5 1013.5 0.0
23/11:00am 20.8 18.0 15.4 71 3.2 ENE 24 35 13 19 1013.8 1013.8 0.0
23/10:30am 21.1 17.9 15.2 69 3.5 ENE 26 37 14 20 1013.9 1013.9 0.0
23/10:09am 21.1 17.0 15.0 68 3.6 ENE 30 50 16 27 1013.8 1013.8 0.0
23/10:00am 21.8 18.1 15.9 69 3.5 ENE 30 41 16 22 1013.8 1013.8 0.0
23/09:37am 20.9 17.5 15.7 72 3.1 ENE 28 48 15 26 1014.1 1014.1 0.0
23/09:30am 20.9 17.8 15.7 72 3.1 ENE 26 35 14 19 1014.2 1014.2 0.0
23/09:00am 20.4 17.2 15.2 72 3.1 ENE 26 41 14 22 1014.2 1014.2 0.0
23/08:30am 19.7 16.4 15.1 75 2.7 ENE 26 39 14 21 1014.2 1014.2 0.0
23/08:00am 19.3 16.1 15.4 78 2.3 ENE 26 35 14 19 1014.2 1014.2 0.0
23/07:30am 18.4 16.5 15.3 82 1.8 ENE 19 30 10 16 1014.3 1014.3 0.0
23/07:00am 17.9 16.4 15.2 84 1.6 E 17 28 9 15 1014.4 1014.4 0.0
23/06:30am 17.6 15.7 15.2 86 1.4 E 19 30 10 16 1014.4 1014.4 0.0
23/06:00am 17.1 15.9 15.1 88 1.2 E 15 24 8 13 1014.6 1014.6 0.0
23/05:30am 17.1 15.2 15.3 89 1.0 E 19 32 10 17 1014.2 1014.2 0.0
23/05:00am 17.1 16.2 14.9 87 1.3 E 13 22 7 12 1014.5 1014.5 0.0
23/04:30am 17.4 16.1 14.9 85 1.4 E 15 28 8 15 1014.5 1014.5 0.0
23/04:00am 17.2 17.0 14.8 86 1.4 E 9 17 5 9 1014.9 1014.9 0.0
23/03:30am 17.3 16.0 14.8 85 1.4 E 15 28 8 15 1015.0 1015.0 0.0
23/03:00am 17.3 15.6 14.6 84 1.6 ENE 17 26 9 14 1015.3 1015.3 0.0
23/02:30am 17.4 15.1 14.7 84 1.6 ENE 20 28 11 15 1015.6 1015.6 0.0
23/02:00am 17.6 14.7 15.0 85 1.5 ENE 24 35 13 19 1015.8 1015.8 0.0
23/01:30am 17.6 14.3 15.0 85 1.5 ENE 26 37 14 20 1016.0 1016.0 0.0
23/01:00am 17.6 14.6 14.9 84 1.6 ENE 24 33 13 18 1016.4 1016.4 0.0
23/12:30am 17.5 14.9 15.0 85 1.5 ENE 22 41 12 22 1016.5 1016.5 0.0
23/12:00am 17.5 14.9 15.0 85 1.4 ENE 22 33 12 18 1016.7 1016.7 0.0
 
Date/Time
EDT
Temp
°C
App
Temp
°C
Dew
Point
°C
Rel
Hum
%
Delta-T
°C
Wind Press
QNH
hPa
Press
MSL
hPa
Rain since
9am
mm
Dir  Spd
km/h
Gust
km/h
Spd
kts
Gust
kts
22/11:30pm 17.4 14.7 14.7 84 1.6 ENE 22 35 12 19 1016.9 1016.9 0.0
22/11:00pm 17.4 15.1 14.7 84 1.6 ENE 20 33 11 18 1017.1 1017.1 0.0
22/10:30pm 17.5 15.8 14.8 84 1.6 ENE 17 30 9 16 1017.3 1017.3 0.0
22/10:00pm 17.5 17.0 14.8 84 1.6 E 11 19 6 10 1017.6 1017.6 0.0
22/09:58pm 17.4 16.8 14.5 83 1.7 E 11 19 6 10 1017.6 1017.6 0.0
22/09:30pm 17.7 17.0 14.4 81 1.9 E 11 22 6 12 1018.0 1017.9 0.0
22/09:00pm 18.0 16.1 14.3 79 2.1 ENE 17 26 9 14 1018.0 1017.9 0.0
22/08:30pm 18.1 16.9 14.0 77 2.3 E 13 22 7 12 1017.7 1017.7 0.0
22/08:13pm 18.3 15.8 14.0 76 2.5 E 20 30 11 16 1017.5 1017.5 0.0
22/08:00pm 18.6 15.7 14.1 75 2.6 E 22 30 12 16 1017.5 1017.5 0.0
22/07:30pm 19.0 14.7 14.3 74 2.7 ENE 30 39 16 21 1017.4 1017.4 0.0
22/07:00pm 19.5 15.9 14.3 72 3.0 ENE 26 33 14 18 1017.3 1017.3 0.0
22/06:30pm 19.5 14.5 14.1 71 3.1 ENE 33 44 18 24 1017.2 1017.2 0.0
22/06:00pm 19.9 16.2 13.8 68 3.5 ENE 26 37 14 20 1017.2 1017.2 0.0
22/05:30pm 20.0 16.6 13.7 67 3.6 ENE 24 39 13 21 1017.3 1017.3 0.0
22/05:00pm 20.4 17.4 13.8 66 3.8 E 22 33 12 18 1017.5 1017.5 0.0
22/04:30pm 21.1 17.7 13.8 63 4.2 E 24 35 13 19 1017.7 1017.7 0.0
22/04:00pm 21.0 16.5 13.7 63 4.2 ENE 30 41 16 22 1018.0 1017.9 0.0
22/03:30pm 21.9 17.0 13.8 60 4.7 ENE 32 46 17 25 1018.1 1018.0 0.0
22/03:00pm 22.8 18.4 14.1 58 5.1 ENE 30 43 16 23 1018.5 1018.4 0.0
22/02:30pm 22.6 18.5 13.7 57 5.2 ENE 28 41 15 22 1018.8 1018.7 0.0
22/02:00pm 22.7 18.4 13.2 55 5.5 E 28 37 15 20 1019.1 1019.0 0.0
22/01:30pm 23.0 18.7 13.2 54 5.7 ENE 28 39 15 21 1019.2 1019.1 0.0
22/01:00pm 22.4 18.6 13.5 57 5.1 E 26 37 14 20 1019.6 1019.5 0.0
22/12:30pm 22.7 19.2 13.5 56 5.3 ENE 24 35 13 19 1019.9 1019.8 0.0
22/12:00pm 22.6 19.2 13.7 57 5.2 E 24 39 13 21 1019.9 1019.8 0.0
22/11:39am 22.4 17.9 13.7 58 5.0 NE 30 48 16 26 1020.0 1019.9 0.0
22/11:30am 21.5 16.6 12.4 56 5.1 NE 30 39 16 21 1020.1 1020.0 0.0
22/11:00am 22.8 18.1 13.3 55 5.5 NE 30 48 16 26 1020.4 1020.3 0.0
22/10:56am 21.4 16.4 12.3 56 5.1 NE 30 48 16 26 1020.5 1020.4 0.0
22/10:30am 21.7 16.5 12.8 57 5.1 NE 32 43 17 23 1020.6 1020.5 0.0
22/10:00am 21.5 16.1 12.9 58 4.9 NE 33 43 18 23 1020.5 1020.4 0.0
22/09:30am 21.1 16.3 13.0 60 4.6 NE 30 37 16 20 1020.7 1020.6 0.0
22/09:00am 20.3 15.1 12.8 62 4.2 ENE 32 44 17 24 1020.7 1020.6 0.0
22/08:30am 19.5 14.0 12.5 64 3.9 NE 33 44 18 24 1020.9 1020.8 0.0
22/08:00am 19.1 13.8 12.6 66 3.6 NE 32 39 17 21 1020.9 1020.8 0.0
22/07:30am 18.6 14.9 12.6 68 3.4 ENE 24 30 13 16 1020.8 1020.7 0.0
22/07:00am 18.0 15.0 12.7 71 2.9 ENE 20 30 11 16 1020.9 1020.8 0.0
22/06:30am 16.9 13.9 12.4 75 2.5 ENE 20 28 11 15 1020.9 1020.8 0.0
22/06:00am 16.8 14.4 12.5 76 2.4 ENE 17 22 9 12 1021.0 1020.9 0.0
22/05:30am 16.7 14.3 12.7 77 2.2 ENE 17 20 9 11 1020.9 1020.8 0.0
22/05:00am 16.8 14.4 12.7 77 2.3 ENE 17 28 9 15 1020.8 1020.7 0.0
22/04:30am 16.6 14.6 12.6 77 2.2 ENE 15 22 8 12 1020.7 1020.6 0.0
22/04:00am 16.9 14.5 12.8 77 2.3 ENE 17 22 9 12 1020.7 1020.6 0.0
22/03:30am 17.1 16.0 13.0 77 2.3 ENE 11 19 6 10 1021.1 1021.0 0.0
22/03:00am 17.2 14.6 13.1 77 2.3 ENE 19 30 10 16 1021.0 1020.9 0.0
22/02:30am 17.1 14.4 13.4 79 2.1 ENE 20 28 11 15 1021.0 1020.9 0.0
22/02:00am 17.0 14.3 13.5 80 2.0 ENE 20 30 11 16 1021.3 1021.2 0.0
22/01:30am 16.9 14.9 13.8 82 1.8 ENE 17 24 9 13 1021.5 1021.4 0.0
22/01:00am 16.7 13.8 14.0 84 1.5 ENE 22 37 12 20 1021.5 1021.4 0.0
22/12:30am 16.5 14.2 14.0 85 1.4 ENE 19 28 10 15 1021.7 1021.6 0.0
22/12:00am 16.7 13.8 14.0 84 1.5 ENE 22 30 12 16 1021.9 1021.8 0.0
 
Date/Time
EDT
Temp
°C
App
Temp
°C
Dew
Point
°C
Rel
Hum
%
Delta-T
°C
Wind Press
QNH
hPa
Press
MSL
hPa
Rain since
9am
mm
Dir  Spd
km/h
Gust
km/h
Spd
kts
Gust
kts
21/11:30pm 16.8 15.3 14.1 84 1.5 E 15 22 8 12 1022.2 1022.1 0.0
21/11:00pm 17.2 13.3 14.3 83 1.7 ENE 28 43 15 23 1022.0 1021.9 0.0
21/10:30pm 17.1 14.7 14.4 84 1.5 ENE 20 32 11 17 1022.0 1021.9 0.0
21/10:00pm 17.1 16.8 14.4 84 1.5 E 9 19 5 10 1022.2 1022.1 0.0
21/09:30pm 17.0 16.2 13.9 82 1.8 E 11 17 6 9 1022.4 1022.3 0.0
21/09:00pm 17.0 14.8 13.3 79 2.1 ENE 17 22 9 12 1022.2 1022.1 0.0
21/08:30pm 17.5 12.8 13.2 76 2.4 ENE 30 37 16 20 1021.8 1021.7 0.0
21/08:00pm 18.1 13.0 13.2 73 2.8 ENE 32 43 17 23 1022.0 1021.9 0.0
21/07:30pm 18.9 13.7 13.3 70 3.2 ENE 33 46 18 25 1021.6 1021.5 0.0
21/07:00pm 19.8 14.8 13.5 67 3.6 ENE 32 41 17 22 1021.5 1021.4 0.0
21/06:30pm 20.2 14.9 13.2 64 4.0 ENE 33 46 18 25 1021.5 1021.4 0.0
21/06:00pm 21.0 15.9 13.2 61 4.4 NE 32 41 17 22 1021.5 1021.4 0.0
21/05:30pm 21.5 16.7 12.9 58 4.9 ENE 30 37 16 20 1021.5 1021.4 0.0
21/05:00pm 22.0 16.9 13.1 57 5.1 NE 32 39 17 21 1021.8 1021.7 0.0
21/04:30pm 22.7 17.5 12.9 54 5.6 NE 32 41 17 22 1022.0 1021.9 0.0
21/04:00pm 22.5 18.0 12.7 54 5.6 NE 28 35 15 19 1022.2 1022.1 0.0
21/03:30pm 22.9 18.3 12.2 51 6.1 NE 28 37 15 20 1022.4 1022.3 0.0
21/03:00pm 23.1 17.8 13.0 53 5.8 NE 33 39 18 21 1022.4 1022.3 0.0
21/02:30pm 22.6 17.7 12.5 53 5.7 NE 30 39 16 21 1022.9 1022.8 0.0
21/02:00pm 22.8 17.7 13.0 54 5.6 NE 32 41 17 22 1023.2 1023.1 0.0
21/01:30pm 23.0 18.6 12.9 53 5.8 NE 28 39 15 21 1023.3 1023.2 0.0
21/01:00pm 22.6 17.3 13.1 55 5.4 ENE 33 43 18 23 1023.2 1023.1 0.0
21/12:30pm 22.9 17.3 13.4 55 5.5 NE 35 43 19 23 1023.5 1023.4 0.0
21/12:00pm 22.4 16.4 13.2 56 5.3 NE 37 46 20 25 1023.7 1023.6 0.0
21/11:30am 21.9 15.8 13.0 57 5.1 NE 37 48 20 26 1023.6 1023.5 0.0
21/11:00am 22.0 14.9 13.4 58 4.9 NE 43 57 23 31 1023.6 1023.5 0.0
21/10:48am 21.7 15.3 13.1 58 4.9 NE 39 57 21 31 1023.7 1023.6 0.0
21/10:30am 21.5 14.5 13.7 61 4.5 ENE 43 57 23 31 1023.6 1023.5 0.0
21/10:21am 21.3 15.1 13.7 62 4.4 ENE 39 57 21 31 1023.7 1023.6 0.0
21/10:00am 20.8 13.5 13.3 62 4.3 NE 44 57 24 31 1023.9 1023.8 0.0
21/09:30am 20.8 13.2 13.7 64 4.1 NE 46 57 25 31 1023.7 1023.6 0.0
21/09:00am 20.3 13.4 14.0 67 3.6 NE 43 56 23 30 1023.9 1023.8 0.0
21/08:43am 19.9 14.1 13.8 68 3.5 ENE 37 56 20 30 1023.7 1023.6 0.0
21/08:30am 19.4 13.9 13.6 69 3.3 ENE 35 52 19 28 1023.7 1023.6 0.0
21/08:12am 18.9 13.9 13.3 70 3.2 ENE 32 52 17 28 1023.8 1023.7 0.0
21/08:00am 19.3 14.8 13.9 71 3.1 ENE 30 43 16 23 1023.9 1023.8 0.0
21/07:30am 18.4 15.1 13.9 75 2.6 ENE 24 37 13 20 1023.6 1023.5 0.0
21/07:00am 17.5 14.2 14.0 80 2.0 ENE 24 37 13 20 1023.4 1023.3 0.0
21/06:40am 17.2 14.3 14.1 82 1.8 ENE 22 32 12 17 1023.4 1023.3 0.0
21/06:30am 17.1 14.8 14.2 83 1.7 ENE 19 28 10 15 1023.3 1023.2 0.0
21/06:00am 16.7 14.8 14.2 85 1.4 ENE 17 32 9 17 1023.2 1023.1 0.0

Other Formats:

Comma delimited format used in spreadsheet applications
http://www.bom.gov.au/fwo/IDT60801/IDT60801.94980.axf

JavaScript Object Notation format (JSON) in row-major order
http://www.bom.gov.au/fwo/IDT60801/IDT60801.94980.json